createdAt,value
2019-04-24T00:04:36.149Z,12.70
2019-04-24T00:09:32.709Z,12.80
2019-04-24T00:15:27.402Z,13.00
2019-04-24T00:23:00.494Z,13.00
2019-04-24T00:25:35.056Z,13.00
2019-04-24T00:27:53.525Z,13.00
2019-04-24T00:33:01.671Z,12.70
2019-04-24T00:38:10.582Z,12.70
2019-04-24T00:40:40.197Z,12.60
2019-04-24T00:43:21.079Z,12.50
2019-04-24T00:48:15.777Z,12.30
2019-04-24T00:50:51.961Z,12.40
2019-04-24T00:55:49.393Z,12.50
2019-04-24T00:58:18.889Z,12.50
2019-04-24T01:01:07.157Z,12.50
2019-04-24T01:06:32.223Z,12.30
2019-04-24T01:09:01.924Z,12.40
2019-04-24T01:11:26.796Z,12.30
2019-04-24T01:14:09.076Z,12.40
2019-04-24T01:19:03.465Z,12.40
2019-04-24T01:21:44.853Z,12.50
2019-04-24T01:29:18.797Z,12.70
2019-04-24T01:31:46.701Z,12.60
2019-04-24T01:34:51.042Z,12.60
2019-04-24T01:37:55.224Z,12.50
2019-04-24T01:40:12.849Z,12.50
2019-04-24T01:42:55.172Z,12.50
2019-04-24T01:45:37.174Z,12.50
2019-04-24T01:48:13.306Z,12.40
2019-04-24T01:52:56.832Z,12.40
2019-04-24T01:55:22.723Z,12.40
2019-04-24T01:58:00.818Z,12.40
2019-04-24T02:02:59.077Z,12.20
2019-04-24T02:08:29.813Z,11.90
2019-04-24T02:11:24.966Z,11.80
2019-04-24T02:13:38.095Z,11.70
2019-04-24T02:16:24.243Z,11.80
2019-04-24T02:18:53.762Z,11.70
2019-04-24T02:21:24.596Z,11.70
2019-04-24T02:26:28.443Z,11.60
2019-04-24T02:37:24.001Z,11.60
2019-04-24T02:40:23.997Z,11.50
2019-04-24T02:50:33.256Z,12.00
2019-04-24T02:53:08.791Z,12.10
2019-04-24T02:55:50.376Z,12.20
2019-04-24T02:58:13.311Z,12.20
2019-04-24T03:08:43.211Z,11.80
2019-04-24T03:17:20.022Z,11.80
2019-04-24T03:24:45.594Z,12.30
2019-04-24T03:27:35.507Z,12.40
2019-04-24T03:51:39.033Z,12.30
2019-04-24T03:59:13.405Z,12.00
2019-04-24T04:04:31.768Z,11.90
2019-04-24T04:09:46.023Z,11.60
2019-04-24T04:12:33.444Z,11.50
2019-04-24T04:15:01.069Z,11.40
2019-04-24T04:17:07.496Z,11.30
2019-04-24T04:22:36.774Z,11.20
2019-04-24T04:30:53.827Z,11.30
2019-04-24T04:36:28.930Z,11.30
2019-04-24T04:47:18.487Z,11.40
2019-04-24T04:50:02.661Z,11.30
2019-04-24T04:52:44.298Z,11.30
2019-04-24T05:02:55.048Z,11.00
2019-04-24T05:05:18.763Z,11.00
2019-04-24T05:07:37.909Z,11.00
2019-04-24T05:10:06.292Z,11.00
2019-04-24T05:12:47.066Z,11.10
2019-04-24T05:17:57.663Z,11.80
2019-04-24T05:22:56.642Z,12.60
2019-04-24T05:25:43.417Z,13.00
2019-04-24T05:28:18.982Z,13.50
2019-04-24T05:35:53.099Z,14.40
2019-04-24T05:39:10.676Z,14.80
2019-04-24T05:41:32.819Z,15.00
2019-04-24T05:43:58.749Z,15.30
2019-04-24T05:46:39.124Z,15.50
2019-04-24T05:49:02.528Z,15.80
2019-04-24T05:52:11.495Z,16.10
2019-04-24T05:54:39.298Z,16.20
2019-04-24T06:02:47.938Z,16.80
2019-04-24T06:08:06.642Z,16.90
2019-04-24T06:13:09.285Z,17.30
2019-04-24T06:16:09.896Z,17.40
2019-04-24T06:21:23.050Z,17.80
2019-04-24T06:24:16.292Z,18.00
2019-04-24T06:40:30.470Z,19.30
2019-04-24T06:43:01.577Z,19.40
2019-04-24T06:50:52.315Z,19.90
2019-04-24T06:52:59.036Z,20.20
2019-04-24T06:55:41.704Z,20.60
2019-04-24T07:00:54.619Z,20.60
2019-04-24T07:15:13.991Z,21.70
2019-04-24T07:17:32.057Z,21.90
2019-04-24T07:20:07.334Z,22.20
2019-04-24T07:22:25.756Z,22.50
2019-04-24T07:25:10.458Z,22.70
2019-04-24T07:27:54.050Z,22.50
2019-04-24T07:30:30.039Z,22.30
2019-04-24T07:36:01.755Z,21.60
2019-04-24T07:41:17.100Z,21.00
2019-04-24T07:43:42.434Z,20.90
2019-04-24T07:59:59.523Z,23.70
2019-04-24T08:02:33.370Z,24.00
2019-04-24T08:10:44.025Z,24.30
2019-04-24T08:13:29.746Z,24.20
2019-04-24T08:15:52.960Z,23.70
2019-04-24T08:18:32.778Z,23.30
2019-04-24T08:23:38.891Z,22.90
2019-04-24T08:26:00.928Z,22.80
2019-04-24T08:28:44.257Z,22.60
2019-04-24T08:34:20.448Z,22.70
2019-04-24T08:36:25.170Z,23.00
2019-04-24T08:42:21.396Z,23.20
2019-04-24T08:45:12.838Z,23.30
2019-04-24T08:47:52.847Z,23.60
2019-04-24T08:52:53.309Z,24.30
2019-04-24T08:55:20.072Z,24.70
2019-04-24T09:00:34.680Z,25.80
2019-04-24T09:03:32.563Z,26.20
2019-04-24T09:06:00.958Z,26.20
2019-04-24T09:11:45.078Z,26.50
2019-04-24T09:16:59.412Z,26.80
2019-04-24T09:19:22.717Z,27.00
2019-04-24T09:22:00.966Z,26.80
2019-04-24T09:25:09.608Z,26.80
2019-04-24T09:27:45.480Z,27.10
2019-04-24T09:35:48.263Z,27.50
2019-04-24T09:38:37.426Z,27.10
2019-04-24T09:41:16.095Z,27.20
2019-04-24T09:43:47.657Z,27.00
2019-04-24T09:48:57.523Z,26.90
2019-04-24T09:51:16.389Z,27.40
2019-04-24T09:57:04.567Z,27.70
2019-04-24T09:59:24.346Z,27.70
2019-04-24T10:05:02.556Z,27.80
2019-04-24T10:07:29.883Z,27.80
2019-04-24T10:15:01.203Z,27.10
2019-04-24T10:17:44.434Z,27.20
2019-04-24T10:25:34.968Z,26.60
2019-04-24T10:31:38.922Z,26.20
2019-04-24T10:34:13.719Z,25.90
2019-04-24T10:37:01.260Z,25.90
2019-04-24T10:42:35.905Z,26.10
2019-04-24T11:07:28.469Z,26.50
2019-04-24T11:10:29.829Z,26.60
2019-04-24T11:13:08.070Z,26.40
2019-04-24T11:15:48.933Z,26.10
2019-04-24T11:18:48.018Z,25.90
2019-04-24T11:24:11.339Z,26.00
2019-04-24T11:26:58.519Z,26.30
2019-04-24T11:29:24.122Z,26.10
2019-04-24T11:32:19.237Z,26.20
2019-04-24T11:35:04.175Z,26.30
2019-04-24T11:37:47.229Z,26.30
2019-04-24T11:43:25.700Z,26.20
2019-04-24T11:45:53.128Z,26.10
2019-04-24T11:51:49.321Z,26.00
2019-04-24T11:54:02.488Z,25.80
2019-04-24T11:56:58.062Z,25.90
2019-04-24T11:59:30.041Z,25.90
2019-04-24T12:02:21.089Z,26.10
2019-04-24T12:05:10.677Z,26.20
2019-04-24T12:07:52.759Z,26.30
2019-04-24T12:10:21.061Z,26.30
2019-04-24T12:13:20.426Z,26.30
2019-04-24T12:16:05.168Z,26.30
2019-04-24T12:18:49.493Z,26.40
2019-04-24T12:21:31.057Z,26.40
2019-04-24T12:29:04.225Z,26.60
2019-04-24T12:32:06.483Z,26.60
2019-04-24T12:34:43.333Z,26.50
2019-04-24T12:42:29.818Z,26.40
2019-04-24T12:44:52.856Z,26.40
2019-04-24T12:52:35.959Z,26.50
2019-04-24T12:55:10.500Z,26.60
2019-04-24T12:57:57.191Z,26.30
2019-04-24T13:01:03.508Z,26.20
2019-04-24T13:03:48.174Z,26.20
2019-04-24T13:06:06.571Z,26.00
2019-04-24T13:11:19.653Z,25.60
2019-04-24T13:14:05.733Z,25.50
2019-04-24T13:17:01.906Z,25.50
2019-04-24T13:19:14.271Z,25.40
2019-04-24T13:21:28.924Z,25.30
2019-04-24T13:24:06.303Z,25.40
2019-04-24T13:27:06.969Z,25.40
2019-04-24T13:29:55.942Z,25.70
2019-04-24T13:32:30.619Z,26.00
2019-04-24T13:38:13.250Z,26.30
2019-04-24T13:40:22.468Z,26.40
2019-04-24T13:48:14.332Z,26.70
2019-04-24T13:53:29.827Z,26.80
2019-04-24T13:58:16.049Z,26.50
2019-04-24T14:01:00.192Z,26.40
2019-04-24T14:06:12.507Z,26.20
2019-04-24T14:08:35.734Z,26.10
2019-04-24T14:11:14.656Z,26.00
2019-04-24T14:13:33.572Z,26.10
2019-04-24T14:21:18.622Z,26.10
2019-04-24T14:24:14.521Z,26.00
2019-04-24T14:26:27.245Z,25.90
2019-04-24T14:28:57.977Z,25.80
2019-04-24T14:36:32.737Z,25.10
2019-04-24T14:39:18.379Z,25.10
2019-04-24T14:41:38.371Z,24.90
2019-04-24T14:47:04.100Z,24.60
2019-04-24T14:49:41.758Z,24.50
2019-04-24T14:52:05.324Z,24.40
2019-04-24T14:54:43.104Z,24.30
2019-04-24T14:57:08.243Z,24.10
2019-04-24T14:59:34.203Z,24.00
2019-04-24T15:02:11.334Z,23.80
2019-04-24T15:04:39.316Z,23.70
2019-04-24T15:09:43.173Z,23.60
2019-04-24T15:12:26.827Z,23.50
2019-04-24T15:14:53.258Z,23.50
2019-04-24T15:20:09.141Z,23.40
2019-04-24T15:30:02.423Z,23.00
2019-04-24T15:40:32.375Z,22.80
2019-04-24T15:42:51.367Z,22.70
2019-04-24T15:45:14.386Z,22.70
2019-04-24T15:50:27.101Z,22.60
2019-04-24T15:52:22.313Z,22.60
2019-04-24T15:54:52.819Z,22.50
2019-04-24T15:57:23.560Z,22.40
2019-04-24T16:00:19.377Z,22.30
2019-04-24T16:03:07.365Z,22.20
2019-04-24T16:04:56.834Z,22.20
2019-04-24T16:07:32.951Z,22.20
2019-04-24T16:10:11.509Z,22.10
2019-04-24T16:12:41.656Z,22.10
2019-04-24T16:15:56.745Z,22.10
2019-04-24T16:20:58.182Z,22.00
2019-04-24T16:23:27.401Z,22.00
2019-04-24T16:25:52.199Z,22.00
2019-04-24T16:31:01.068Z,21.90
2019-04-24T16:36:20.721Z,21.80
2019-04-24T16:38:38.233Z,21.70
2019-04-24T16:41:17.336Z,21.70
2019-04-24T16:44:11.023Z,21.60
2019-04-24T16:49:18.099Z,21.40
2019-04-24T16:51:42.387Z,21.30
2019-04-24T16:54:10.470Z,21.20
2019-04-24T16:56:47.936Z,21.20
2019-04-24T17:06:53.512Z,21.10
2019-04-24T17:09:28.724Z,21.10
2019-04-24T17:17:31.790Z,21.00
2019-04-24T17:22:53.239Z,20.90
2019-04-24T17:27:55.211Z,20.80
2019-04-24T17:32:54.237Z,20.80
2019-04-24T17:35:28.572Z,20.70
2019-04-24T17:37:31.905Z,20.70
2019-04-24T17:40:17.405Z,20.60
2019-04-24T17:43:06.852Z,20.50
2019-04-24T17:48:23.126Z,20.60
2019-04-24T17:51:09.786Z,20.50
2019-04-24T17:53:27.734Z,20.50
2019-04-24T17:56:04.852Z,20.50
2019-04-24T18:00:57.227Z,20.30
2019-04-24T18:03:28.981Z,20.30
2019-04-24T18:06:00.582Z,20.20
2019-04-24T18:08:33.357Z,20.10
2019-04-24T18:11:03.715Z,20.10
2019-04-24T18:13:34.348Z,20.10
2019-04-24T18:16:06.700Z,20.00
2019-04-24T18:18:37.563Z,20.00
2019-04-24T18:21:09.066Z,19.90
2019-04-24T18:23:42.108Z,19.80
2019-04-24T18:26:20.031Z,19.80
2019-04-24T18:28:51.759Z,19.70
2019-04-24T18:31:22.560Z,19.70
2019-04-24T18:33:53.342Z,19.70
2019-04-24T18:36:26.074Z,19.70
2019-04-24T18:38:59.280Z,19.60
2019-04-24T18:41:32.789Z,19.60
2019-04-24T18:44:04.709Z,19.60
2019-04-24T18:46:37.647Z,19.50
2019-04-24T18:49:51.518Z,19.50
2019-04-24T18:52:23.040Z,19.40
2019-04-24T18:54:53.648Z,19.30
2019-04-24T18:57:24.942Z,19.30
2019-04-24T18:59:55.688Z,19.30
2019-04-24T19:02:26.518Z,19.20
2019-04-24T19:05:01.906Z,19.30
2019-04-24T19:07:33.444Z,19.30
2019-04-24T19:10:07.144Z,19.30
2019-04-24T19:12:38.352Z,19.30
2019-04-24T19:15:11.499Z,19.20
2019-04-24T19:17:54.359Z,19.20
2019-04-24T19:20:18.892Z,19.20
2019-04-24T19:23:01.948Z,19.10
2019-04-24T19:25:23.367Z,19.10
2019-04-24T19:27:55.608Z,19.00
2019-04-24T19:30:27.635Z,18.90
2019-04-24T19:33:02.703Z,18.80
2019-04-24T19:35:34.006Z,18.70
2019-04-24T19:38:05.895Z,18.60
2019-04-24T19:40:40.129Z,18.50
2019-04-24T19:43:14.393Z,18.40
2019-04-24T19:45:47.283Z,18.40
2019-04-24T19:48:25.444Z,18.20
2019-04-24T19:50:57.555Z,18.10
2019-04-24T19:53:32.190Z,17.90
2019-04-24T19:56:05.411Z,17.80
2019-04-24T19:58:42.227Z,17.60
2019-04-24T20:01:15.614Z,17.50
2019-04-24T20:03:47.819Z,17.40
2019-04-24T20:06:19.603Z,17.40
2019-04-24T20:08:51.871Z,17.40
2019-04-24T20:11:43.596Z,17.40
2019-04-24T20:14:21.108Z,17.50
2019-04-24T20:16:54.130Z,17.80
2019-04-24T20:19:31.548Z,18.00
2019-04-24T20:22:34.042Z,18.20
2019-04-24T20:25:05.798Z,18.40
2019-04-24T20:27:41.530Z,18.40
2019-04-24T20:30:16.544Z,18.40
2019-04-24T20:32:51.624Z,18.30
2019-04-24T20:35:23.333Z,18.20
2019-04-24T20:37:58.220Z,18.10
2019-04-24T20:40:31.624Z,18.00
2019-04-24T20:43:02.288Z,17.80
2019-04-24T20:45:34.468Z,17.80
2019-04-24T20:48:04.291Z,17.70
2019-04-24T20:50:34.472Z,17.60
2019-04-24T20:53:07.086Z,17.50
2019-04-24T20:55:46.968Z,17.40
2019-04-24T20:58:20.213Z,17.10
2019-04-24T21:00:50.551Z,16.60
2019-04-24T21:03:23.445Z,16.30
2019-04-24T21:06:22.319Z,16.00
2019-04-24T21:09:00.423Z,15.70
2019-04-24T21:11:30.578Z,15.40
2019-04-24T21:14:01.601Z,15.20
2019-04-24T21:16:32.285Z,15.10
2019-04-24T21:19:02.210Z,14.90
2019-04-24T21:21:32.883Z,14.80
2019-04-24T21:24:02.846Z,14.70
2019-04-24T21:26:33.097Z,14.60
2019-04-24T21:29:03.066Z,14.50
2019-04-24T21:31:33.006Z,14.40
2019-04-24T21:34:03.310Z,14.30
2019-04-24T21:36:33.604Z,14.30
2019-04-24T21:39:04.077Z,14.20
2019-04-24T21:41:34.411Z,14.10
2019-04-24T21:44:04.437Z,14.00
2019-04-24T21:46:34.758Z,14.00
2019-04-24T21:49:04.975Z,13.90
2019-04-24T21:51:35.852Z,13.90
2019-04-24T21:54:05.822Z,13.80
2019-04-24T21:56:36.018Z,13.80
2019-04-24T21:59:06.246Z,13.70
2019-04-24T22:02:04.334Z,13.60
2019-04-24T22:04:43.731Z,13.50
2019-04-24T22:07:25.756Z,13.50
2019-04-24T22:09:56.734Z,13.50
2019-04-24T22:12:27.509Z,13.40
2019-04-24T22:14:57.603Z,13.30
2019-04-24T22:17:27.812Z,13.10
2019-04-24T22:19:57.941Z,13.10
2019-04-24T22:22:38.210Z,13.10
2019-04-24T22:25:34.018Z,13.00
2019-04-24T22:28:05.466Z,13.00
2019-04-24T22:30:52.832Z,12.80
2019-04-24T22:33:23.307Z,12.80
2019-04-24T22:35:53.706Z,12.60
2019-04-24T22:38:27.519Z,12.50
2019-04-24T22:41:02.428Z,12.40
2019-04-24T22:43:33.619Z,12.40
2019-04-24T22:46:04.244Z,12.30
2019-04-24T22:48:34.922Z,12.20
2019-04-24T22:51:06.038Z,12.20
2019-04-24T22:53:37.023Z,12.10
2019-04-24T22:56:09.739Z,12.10
2019-04-24T22:58:39.674Z,12.00
2019-04-24T23:01:09.919Z,11.90
2019-04-24T23:03:39.795Z,11.90
2019-04-24T23:06:09.752Z,11.80
2019-04-24T23:08:39.571Z,11.80
2019-04-24T23:11:09.764Z,11.80
2019-04-24T23:13:41.641Z,11.70
2019-04-24T23:16:12.614Z,11.70
2019-04-24T23:18:42.983Z,11.60
2019-04-24T23:21:38.031Z,11.60
2019-04-24T23:24:45.705Z,11.60
2019-04-24T23:27:24.607Z,11.50
2019-04-24T23:30:19.496Z,11.40
2019-04-24T23:32:55.230Z,11.30
2019-04-24T23:35:25.883Z,11.30
2019-04-24T23:37:56.121Z,11.20
2019-04-24T23:40:25.995Z,11.20
2019-04-24T23:42:56.640Z,11.10
2019-04-24T23:45:27.022Z,11.00
2019-04-24T23:47:57.218Z,11.00
2019-04-24T23:50:27.098Z,10.90
2019-04-24T23:52:56.868Z,10.80
2019-04-24T23:55:26.674Z,10.80
2019-04-24T23:57:56.942Z,10.70
